createdAt,value
2022-11-07T00:01:43.193Z,11.12
2022-11-07T00:07:07.327Z,11.16
2022-11-07T00:12:35.396Z,11.28
2022-11-07T00:17:58.892Z,11.20
2022-11-07T00:23:22.140Z,11.25
2022-11-07T00:28:46.816Z,11.19
2022-11-07T00:34:10.056Z,11.17
2022-11-07T00:39:33.321Z,11.22
2022-11-07T00:45:00.234Z,11.24
2022-11-07T00:50:23.428Z,11.21
2022-11-07T00:55:46.644Z,11.25
2022-11-07T01:01:12.758Z,11.27
2022-11-07T01:06:37.785Z,11.30
2022-11-07T01:12:01.124Z,11.25
2022-11-07T01:17:25.783Z,11.23
2022-11-07T01:22:49.002Z,11.27
2022-11-07T01:28:12.601Z,11.31
2022-11-07T01:33:38.053Z,11.35
2022-11-07T01:39:01.313Z,11.30
2022-11-07T01:44:58.326Z,11.32
2022-11-07T01:50:25.093Z,11.18
2022-11-07T01:55:48.271Z,11.09
2022-11-07T02:01:11.574Z,11.05
2022-11-07T02:06:42.236Z,10.97
2022-11-07T02:12:05.817Z,10.95
2022-11-07T02:17:29.196Z,10.99
2022-11-07T02:22:56.635Z,11.05
2022-11-07T02:28:22.911Z,11.05
2022-11-07T02:33:49.169Z,10.95
2022-11-07T02:39:12.402Z,11.07
2022-11-07T02:44:37.092Z,11.13
2022-11-07T02:50:00.337Z,11.13
2022-11-07T02:55:23.602Z,11.11
2022-11-07T03:00:48.269Z,11.04
2022-11-07T03:06:12.941Z,10.85
2022-11-07T03:11:36.317Z,10.95
2022-11-07T03:17:01.148Z,10.96
2022-11-07T03:22:24.709Z,10.95
2022-11-07T03:27:48.535Z,10.93
2022-11-07T03:33:13.705Z,10.93
2022-11-07T03:38:37.238Z,10.80
2022-11-07T03:44:00.396Z,10.81
2022-11-07T03:49:25.080Z,10.76
2022-11-07T03:54:48.293Z,10.85
2022-11-07T04:00:12.945Z,10.91
2022-11-07T04:05:37.482Z,10.75
2022-11-07T04:11:00.786Z,10.78
2022-11-07T04:16:41.322Z,10.81
2022-11-07T04:22:05.873Z,10.90
2022-11-07T04:27:45.855Z,10.90
2022-11-07T04:33:09.046Z,10.94
2022-11-07T04:38:33.640Z,11.01
2022-11-07T04:43:56.839Z,11.05
2022-11-07T04:49:20.102Z,11.07
2022-11-07T04:54:44.671Z,11.04
2022-11-07T05:00:09.416Z,11.07
2022-11-07T05:05:32.813Z,11.11
2022-11-07T05:10:57.568Z,11.03
2022-11-07T05:16:20.805Z,11.02
2022-11-07T05:21:44.050Z,11.02
2022-11-07T05:27:16.277Z,11.00
2022-11-07T05:32:41.278Z,11.03
2022-11-07T05:38:05.164Z,10.97
2022-11-07T05:43:29.873Z,11.00
2022-11-07T05:48:56.641Z,11.02
2022-11-07T05:54:24.676Z,11.04
2022-11-07T05:59:49.298Z,11.06
2022-11-07T06:05:12.534Z,11.04
2022-11-07T06:10:36.956Z,11.04
2022-11-07T06:16:01.651Z,11.13
2022-11-07T06:21:24.910Z,11.16
2022-11-07T06:26:48.291Z,11.18
2022-11-07T06:32:13.137Z,11.19
2022-11-07T06:37:36.428Z,11.26
2022-11-07T06:43:11.153Z,11.23
2022-11-07T06:49:04.023Z,11.29
2022-11-07T06:54:28.417Z,11.36
2022-11-07T07:00:00.848Z,11.33
2022-11-07T07:05:52.263Z,11.33
2022-11-07T07:11:18.244Z,11.39
2022-11-07T07:16:46.742Z,11.28
2022-11-07T07:22:38.950Z,11.31
2022-11-07T07:28:02.289Z,11.32
2022-11-07T07:33:28.389Z,11.39
2022-11-07T07:39:11.162Z,11.40
2022-11-07T07:44:47.030Z,11.39
2022-11-07T07:50:13.464Z,11.51
2022-11-07T07:55:42.865Z,11.59
2022-11-07T08:01:10.779Z,11.60
2022-11-07T08:06:41.501Z,11.67
2022-11-07T08:12:13.916Z,11.67
2022-11-07T08:17:37.524Z,11.82
2022-11-07T08:23:02.563Z,11.79
2022-11-07T08:28:57.257Z,11.63
2022-11-07T08:34:28.255Z,11.65
2022-11-07T08:39:53.513Z,11.74
2022-11-07T08:45:18.617Z,11.72
2022-11-07T08:50:45.759Z,11.95
2022-11-07T08:56:12.075Z,12.20
2022-11-07T09:02:15.182Z,12.27
2022-11-07T09:07:30.283Z,12.45
2022-11-07T09:12:57.243Z,12.53
2022-11-07T09:18:26.639Z,12.61
2022-11-07T09:23:51.105Z,12.62
2022-11-07T09:29:20.684Z,12.70
2022-11-07T09:34:56.005Z,12.86
2022-11-07T09:40:28.740Z,12.98
2022-11-07T09:45:59.507Z,13.04
2022-11-07T09:51:33.226Z,13.15
2022-11-07T09:56:58.698Z,13.26
2022-11-07T10:02:25.928Z,13.25
2022-11-07T10:08:02.526Z,13.33
2022-11-07T10:13:48.188Z,13.45
2022-11-07T10:19:21.744Z,13.43
2022-11-07T10:24:56.867Z,13.41
2022-11-07T10:30:22.408Z,13.70
2022-11-07T10:35:47.898Z,13.71
2022-11-07T10:41:24.662Z,13.69
2022-11-07T10:46:54.366Z,13.69
2022-11-07T10:52:21.238Z,13.72
2022-11-07T10:57:57.085Z,13.76
2022-11-07T11:03:41.932Z,14.03
2022-11-07T11:09:17.319Z,14.10
2022-11-07T11:14:45.058Z,14.02
2022-11-07T11:20:24.851Z,13.89
2022-11-07T11:25:49.371Z,13.76
2022-11-07T11:31:22.303Z,13.63
2022-11-07T11:36:53.190Z,13.52
2022-11-07T11:42:26.776Z,13.54
2022-11-07T11:48:03.419Z,13.47
2022-11-07T11:53:28.795Z,13.40
2022-11-07T11:59:06.323Z,13.46
2022-11-07T12:04:51.236Z,13.51
2022-11-07T12:10:26.046Z,13.47
2022-11-07T12:15:57.614Z,13.42
2022-11-07T12:21:34.648Z,13.42
2022-11-07T12:27:10.441Z,13.43
2022-11-07T12:32:42.186Z,13.44
2022-11-07T12:38:25.661Z,13.61
2022-11-07T12:43:56.125Z,13.69
2022-11-07T12:49:46.860Z,13.69
2022-11-07T12:55:20.985Z,13.73
2022-11-07T13:00:44.648Z,13.81
2022-11-07T13:06:16.062Z,13.76
2022-11-07T13:11:50.904Z,13.89
2022-11-07T13:17:18.913Z,13.99
2022-11-07T13:22:42.588Z,13.80
2022-11-07T13:28:30.550Z,13.66
2022-11-07T13:33:54.009Z,13.55
2022-11-07T13:39:17.747Z,13.51
2022-11-07T13:44:55.408Z,13.50
2022-11-07T13:50:25.367Z,13.72
2022-11-07T13:55:55.357Z,13.49
2022-11-07T14:01:25.291Z,13.40
2022-11-07T14:06:52.494Z,13.25
2022-11-07T14:12:21.487Z,13.31
2022-11-07T14:17:48.314Z,13.37
2022-11-07T14:23:13.228Z,13.41
2022-11-07T14:28:38.313Z,13.21
2022-11-07T14:34:05.940Z,13.20
2022-11-07T14:39:32.902Z,13.37
2022-11-07T14:44:57.000Z,13.27
2022-11-07T14:50:25.035Z,13.35
2022-11-07T14:55:50.853Z,13.48
2022-11-07T15:01:25.019Z,13.40
2022-11-07T15:06:53.074Z,13.18
2022-11-07T15:12:19.202Z,13.16
2022-11-07T15:17:48.683Z,13.25
2022-11-07T15:23:29.978Z,13.33
2022-11-07T15:28:54.875Z,13.39
2022-11-07T15:34:39.295Z,13.13
2022-11-07T15:40:15.163Z,13.17
2022-11-07T15:45:43.815Z,13.07
2022-11-07T15:51:12.687Z,13.13
2022-11-07T15:56:38.000Z,13.07
2022-11-07T16:02:01.600Z,13.04
2022-11-07T16:07:25.069Z,13.10
2022-11-07T16:12:49.821Z,13.15
2022-11-07T16:24:03.297Z,13.17
2022-11-07T16:29:28.023Z,13.14
2022-11-07T16:34:51.252Z,13.30
2022-11-07T16:40:16.403Z,13.31
2022-11-07T16:45:46.822Z,13.26
2022-11-07T16:51:15.246Z,13.24
2022-11-07T16:56:38.595Z,13.18
2022-11-07T17:02:07.628Z,13.33
2022-11-07T17:07:33.726Z,13.31
2022-11-07T17:12:56.922Z,13.25
2022-11-07T17:18:22.679Z,13.35
2022-11-07T17:23:46.087Z,13.46
2022-11-07T17:29:11.672Z,13.39
2022-11-07T17:34:36.258Z,13.52
2022-11-07T17:39:59.400Z,13.45
2022-11-07T17:45:22.638Z,13.57
2022-11-07T17:50:47.901Z,13.50
2022-11-07T17:56:16.701Z,13.44
2022-11-07T18:01:40.651Z,13.47
2022-11-07T18:07:05.324Z,13.46
2022-11-07T18:12:28.552Z,13.58
2022-11-07T18:17:51.726Z,13.65
2022-11-07T18:23:16.296Z,13.85
2022-11-07T18:28:42.212Z,13.81
2022-11-07T18:34:07.400Z,13.76
2022-11-07T18:39:32.844Z,13.60
2022-11-07T18:44:56.075Z,13.88
2022-11-07T18:50:19.494Z,13.92
2022-11-07T18:55:44.109Z,13.97
2022-11-07T19:01:08.916Z,13.94
2022-11-07T19:06:32.816Z,13.92
2022-11-07T19:11:58.176Z,13.95
2022-11-07T19:17:23.851Z,13.89
2022-11-07T19:22:47.242Z,13.84
2022-11-07T19:28:11.885Z,13.72
2022-11-07T19:33:35.230Z,13.80
2022-11-07T19:38:58.490Z,13.73
2022-11-07T19:44:43.081Z,13.67
2022-11-07T19:50:12.097Z,13.72
2022-11-07T19:55:36.946Z,13.61
2022-11-07T20:01:01.621Z,13.55
2022-11-07T20:06:27.745Z,13.47
2022-11-07T20:11:50.886Z,13.59
2022-11-07T20:17:15.418Z,13.55
2022-11-07T20:22:42.552Z,13.60
2022-11-07T20:28:08.473Z,13.58
2022-11-07T20:33:33.028Z,13.59
2022-11-07T20:38:56.602Z,13.63
2022-11-07T20:44:22.798Z,13.78
2022-11-07T20:49:47.330Z,13.70
2022-11-07T20:55:11.759Z,13.77
2022-11-07T21:00:34.949Z,13.90
2022-11-07T21:05:59.555Z,13.84
2022-11-07T21:11:22.975Z,13.87
2022-11-07T21:16:46.314Z,13.93
2022-11-07T21:22:10.934Z,13.95
2022-11-07T21:27:36.221Z,13.93
2022-11-07T21:32:59.519Z,13.86
2022-11-07T21:38:25.382Z,13.98
2022-11-07T21:43:48.831Z,13.74
2022-11-07T21:49:12.092Z,13.92
2022-11-07T21:54:36.658Z,13.98
2022-11-07T21:59:59.857Z,14.01
2022-11-07T22:05:25.299Z,14.01
2022-11-07T22:10:50.027Z,14.08
2022-11-07T22:16:14.709Z,14.10
2022-11-07T22:21:38.099Z,14.24
2022-11-07T22:27:02.872Z,14.28
2022-11-07T22:32:26.266Z,14.05
2022-11-07T22:37:49.622Z,14.06
2022-11-07T22:43:14.872Z,14.18
2022-11-07T22:48:39.220Z,13.94
2022-11-07T22:54:05.509Z,14.03
2022-11-07T22:59:30.348Z,14.17
2022-11-07T23:04:53.648Z,14.08
2022-11-07T23:10:17.087Z,13.83
2022-11-07T23:15:41.893Z,13.97
2022-11-07T23:21:11.534Z,13.97
2022-11-07T23:26:36.902Z,13.89
2022-11-07T23:32:01.790Z,13.88
2022-11-07T23:37:27.237Z,13.90
2022-11-07T23:42:51.075Z,13.89
2022-11-07T23:48:35.296Z,13.76
2022-11-07T23:54:16.158Z,13.71
2022-11-07T23:59:56.846Z,13.69
